sensor_id;sensor_type;location;lat;lon;timestamp;P1;durP1;ratioP1;P2;durP2;ratioP2
77522;SDS011;66637;-29.628;-49.938;2023-04-03T00:00:20;143.02;;;19.95;;
77522;SDS011;66637;-29.628;-49.938;2023-04-03T00:02:50;117.95;;;16.25;;
77522;SDS011;66637;-29.628;-49.938;2023-04-03T00:05:21;91.78;;;12.38;;
77522;SDS011;66637;-29.628;-49.938;2023-04-03T00:07:52;85.57;;;9.63;;
77522;SDS011;66637;-29.628;-49.938;2023-04-03T00:10:23;84.65;;;11.82;;
77522;SDS011;66637;-29.628;-49.938;2023-04-03T00:12:53;80.47;;;13.32;;
77522;SDS011;66637;-29.628;-49.938;2023-04-03T00:15:25;80.03;;;13.27;;
77522;SDS011;66637;-29.628;-49.938;2023-04-03T00:17:56;117.47;;;14.55;;
77522;SDS011;66637;-29.628;-49.938;2023-04-03T00:20:27;103.20;;;14.05;;
77522;SDS011;66637;-29.628;-49.938;2023-04-03T00:22:58;87.10;;;11.45;;
77522;SDS011;66637;-29.628;-49.938;2023-04-03T00:25:29;104.07;;;12.20;;
77522;SDS011;66637;-29.628;-49.938;2023-04-03T00:27:59;33.08;;;5.30;;
77522;SDS011;66637;-29.628;-49.938;2023-04-03T00:30:30;22.60;;;4.60;;
77522;SDS011;66637;-29.628;-49.938;2023-04-03T00:33:01;19.98;;;3.38;;
77522;SDS011;66637;-29.628;-49.938;2023-04-03T00:35:33;22.05;;;5.20;;
77522;SDS011;66637;-29.628;-49.938;2023-04-03T00:38:04;18.10;;;3.45;;
77522;SDS011;66637;-29.628;-49.938;2023-04-03T00:40:37;31.38;;;4.13;;
77522;SDS011;66637;-29.628;-49.938;2023-04-03T00:43:12;18.33;;;3.60;;
77522;SDS011;66637;-29.628;-49.938;2023-04-03T00:45:45;17.63;;;3.00;;
77522;SDS011;66637;-29.628;-49.938;2023-04-03T00:48:31;19.40;;;3.83;;
77522;SDS011;66637;-29.628;-49.938;2023-04-03T00:51:06;17.75;;;3.63;;
77522;SDS011;66637;-29.628;-49.938;2023-04-03T00:53:47;21.23;;;3.92;;
77522;SDS011;66637;-29.628;-49.938;2023-04-03T00:56:25;25.73;;;5.05;;
77522;SDS011;66637;-29.628;-49.938;2023-04-03T00:59:04;32.88;;;5.97;;
77522;SDS011;66637;-29.628;-49.938;2023-04-03T01:01:38;30.55;;;6.85;;
77522;SDS011;66637;-29.628;-49.938;2023-04-03T01:07:04;24.58;;;6.55;;
77522;SDS011;66637;-29.628;-49.938;2023-04-03T01:09:41;23.88;;;6.35;;
77522;SDS011;66637;-29.628;-49.938;2023-04-03T01:12:13;21.48;;;6.68;;
77522;SDS011;66637;-29.628;-49.938;2023-04-03T01:14:49;28.42;;;8.15;;
77522;SDS011;66637;-29.628;-49.938;2023-04-03T01:17:35;22.30;;;6.80;;
77522;SDS011;66637;-29.628;-49.938;2023-04-03T01:26:06;23.55;;;7.07;;
77522;SDS011;66637;-29.628;-49.938;2023-04-03T01:28:36;22.67;;;6.03;;
77522;SDS011;66637;-29.628;-49.938;2023-04-03T01:31:12;20.80;;;6.07;;
77522;SDS011;66637;-29.628;-49.938;2023-04-03T01:34:04;18.73;;;6.25;;
77522;SDS011;66637;-29.628;-49.938;2023-04-03T01:36:35;22.33;;;6.32;;
77522;SDS011;66637;-29.628;-49.938;2023-04-03T01:39:05;21.15;;;5.70;;
77522;SDS011;66637;-29.628;-49.938;2023-04-03T01:41:38;20.35;;;5.82;;
77522;SDS011;66637;-29.628;-49.938;2023-04-03T01:44:16;21.98;;;6.00;;
77522;SDS011;66637;-29.628;-49.938;2023-04-03T01:46:46;21.48;;;5.43;;
77522;SDS011;66637;-29.628;-49.938;2023-04-03T01:49:17;16.65;;;4.90;;
77522;SDS011;66637;-29.628;-49.938;2023-04-03T01:51:48;14.95;;;4.03;;
77522;SDS011;66637;-29.628;-49.938;2023-04-03T01:54:19;9.60;;;3.95;;
77522;SDS011;66637;-29.628;-49.938;2023-04-03T01:56:51;17.77;;;4.20;;
77522;SDS011;66637;-29.628;-49.938;2023-04-03T01:59:22;15.23;;;3.95;;
77522;SDS011;66637;-29.628;-49.938;2023-04-03T02:01:52;16.90;;;4.47;;
77522;SDS011;66637;-29.628;-49.938;2023-04-03T02:04:23;14.50;;;3.70;;
77522;SDS011;66637;-29.628;-49.938;2023-04-03T02:06:53;14.02;;;3.42;;
77522;SDS011;66637;-29.628;-49.938;2023-04-03T02:09:24;12.30;;;3.00;;
77522;SDS011;66637;-29.628;-49.938;2023-04-03T02:11:55;17.15;;;3.35;;
77522;SDS011;66637;-29.628;-49.938;2023-04-03T02:14:25;17.10;;;3.15;;
77522;SDS011;66637;-29.628;-49.938;2023-04-03T02:16:57;16.73;;;2.97;;
77522;SDS011;66637;-29.628;-49.938;2023-04-03T02:19:27;16.80;;;3.50;;
77522;SDS011;66637;-29.628;-49.938;2023-04-03T02:21:57;18.33;;;2.85;;
77522;SDS011;66637;-29.628;-49.938;2023-04-03T02:24:29;15.45;;;2.42;;
77522;SDS011;66637;-29.628;-49.938;2023-04-03T02:27:00;13.50;;;2.38;;
77522;SDS011;66637;-29.628;-49.938;2023-04-03T02:29:31;17.98;;;2.83;;
77522;SDS011;66637;-29.628;-49.938;2023-04-03T02:32:01;17.55;;;2.65;;
77522;SDS011;66637;-29.628;-49.938;2023-04-03T02:34:33;17.25;;;2.55;;
77522;SDS011;66637;-29.628;-49.938;2023-04-03T02:37:05;18.23;;;2.75;;
77522;SDS011;66637;-29.628;-49.938;2023-04-03T02:39:35;13.73;;;2.30;;
77522;SDS011;66637;-29.628;-49.938;2023-04-03T02:42:06;10.98;;;2.25;;
77522;SDS011;66637;-29.628;-49.938;2023-04-03T02:44:36;16.48;;;2.65;;
77522;SDS011;66637;-29.628;-49.938;2023-04-03T02:47:09;16.58;;;3.22;;
77522;SDS011;66637;-29.628;-49.938;2023-04-03T02:49:39;14.25;;;2.00;;
77522;SDS011;66637;-29.628;-49.938;2023-04-03T02:52:10;13.52;;;2.63;;
77522;SDS011;66637;-29.628;-49.938;2023-04-03T02:54:41;12.27;;;2.05;;
77522;SDS011;66637;-29.628;-49.938;2023-04-03T02:57:11;13.57;;;1.85;;
77522;SDS011;66637;-29.628;-49.938;2023-04-03T02:59:42;16.20;;;2.03;;
77522;SDS011;66637;-29.628;-49.938;2023-04-03T03:02:14;17.17;;;2.40;;
77522;SDS011;66637;-29.628;-49.938;2023-04-03T03:04:44;13.45;;;2.28;;
77522;SDS011;66637;-29.628;-49.938;2023-04-03T03:07:14;9.30;;;2.15;;
77522;SDS011;66637;-29.628;-49.938;2023-04-03T03:09:46;15.07;;;2.33;;
77522;SDS011;66637;-29.628;-49.938;2023-04-03T03:12:16;12.77;;;2.67;;
77522;SDS011;66637;-29.628;-49.938;2023-04-03T03:14:51;14.82;;;2.13;;
77522;SDS011;66637;-29.628;-49.938;2023-04-03T03:17:21;13.73;;;2.10;;
77522;SDS011;66637;-29.628;-49.938;2023-04-03T03:19:52;11.98;;;2.15;;
77522;SDS011;66637;-29.628;-49.938;2023-04-03T03:22:23;15.30;;;1.90;;
77522;SDS011;66637;-29.628;-49.938;2023-04-03T03:24:54;12.75;;;1.80;;
77522;SDS011;66637;-29.628;-49.938;2023-04-03T03:27:25;14.40;;;1.73;;
77522;SDS011;66637;-29.628;-49.938;2023-04-03T03:29:56;10.45;;;2.10;;
77522;SDS011;66637;-29.628;-49.938;2023-04-03T03:32:27;16.17;;;2.13;;
77522;SDS011;66637;-29.628;-49.938;2023-04-03T03:34:58;15.02;;;1.73;;
77522;SDS011;66637;-29.628;-49.938;2023-04-03T03:37:29;12.77;;;2.10;;
77522;SDS011;66637;-29.628;-49.938;2023-04-03T03:39:59;9.60;;;1.70;;
77522;SDS011;66637;-29.628;-49.938;2023-04-03T03:42:31;15.68;;;2.00;;
77522;SDS011;66637;-29.628;-49.938;2023-04-03T03:45:02;11.55;;;1.52;;
77522;SDS011;66637;-29.628;-49.938;2023-04-03T03:47:33;9.52;;;1.48;;
77522;SDS011;66637;-29.628;-49.938;2023-04-03T03:50:04;11.55;;;1.60;;
77522;SDS011;66637;-29.628;-49.938;2023-04-03T03:52:35;10.30;;;1.50;;
77522;SDS011;66637;-29.628;-49.938;2023-04-03T03:55:06;12.77;;;1.80;;
77522;SDS011;66637;-29.628;-49.938;2023-04-03T03:57:38;15.85;;;2.03;;
77522;SDS011;66637;-29.628;-49.938;2023-04-03T04:00:08;11.90;;;1.85;;
77522;SDS011;66637;-29.628;-49.938;2023-04-03T04:02:44;12.10;;;1.95;;
77522;SDS011;66637;-29.628;-49.938;2023-04-03T04:05:18;11.63;;;1.70;;
77522;SDS011;66637;-29.628;-49.938;2023-04-03T04:07:48;13.93;;;1.35;;
77522;SDS011;66637;-29.628;-49.938;2023-04-03T04:10:21;11.88;;;1.63;;
77522;SDS011;66637;-29.628;-49.938;2023-04-03T04:12:51;15.90;;;1.92;;
77522;SDS011;66637;-29.628;-49.938;2023-04-03T04:15:27;11.40;;;1.63;;
77522;SDS011;66637;-29.628;-49.938;2023-04-03T04:17:58;11.40;;;1.52;;
77522;SDS011;66637;-29.628;-49.938;2023-04-03T04:20:29;9.52;;;1.92;;
77522;SDS011;66637;-29.628;-49.938;2023-04-03T04:22:59;12.20;;;1.70;;
77522;SDS011;66637;-29.628;-49.938;2023-04-03T04:25:30;13.88;;;1.80;;
77522;SDS011;66637;-29.628;-49.938;2023-04-03T04:28:02;13.07;;;2.10;;
77522;SDS011;66637;-29.628;-49.938;2023-04-03T04:30:32;11.95;;;1.40;;
77522;SDS011;66637;-29.628;-49.938;2023-04-03T04:33:05;12.07;;;1.30;;
77522;SDS011;66637;-29.628;-49.938;2023-04-03T04:35:36;18.27;;;2.75;;
77522;SDS011;66637;-29.628;-49.938;2023-04-03T04:38:07;17.33;;;2.00;;
77522;SDS011;66637;-29.628;-49.938;2023-04-03T04:40:39;10.20;;;1.75;;
77522;SDS011;66637;-29.628;-49.938;2023-04-03T04:43:10;12.63;;;1.90;;
77522;SDS011;66637;-29.628;-49.938;2023-04-03T04:45:46;15.98;;;2.10;;
77522;SDS011;66637;-29.628;-49.938;2023-04-03T04:48:19;15.00;;;2.15;;
77522;SDS011;66637;-29.628;-49.938;2023-04-03T04:50:51;19.17;;;1.70;;
77522;SDS011;66637;-29.628;-49.938;2023-04-03T04:53:21;9.70;;;1.65;;
77522;SDS011;66637;-29.628;-49.938;2023-04-03T04:55:53;12.27;;;2.33;;
77522;SDS011;66637;-29.628;-49.938;2023-04-03T04:58:25;11.43;;;1.48;;
77522;SDS011;66637;-29.628;-49.938;2023-04-03T05:01:14;14.90;;;1.90;;
77522;SDS011;66637;-29.628;-49.938;2023-04-03T05:04:01;10.30;;;1.80;;
77522;SDS011;66637;-29.628;-49.938;2023-04-03T05:06:33;12.20;;;1.55;;
77522;SDS011;66637;-29.628;-49.938;2023-04-03T05:09:07;15.90;;;2.10;;
77522;SDS011;66637;-29.628;-49.938;2023-04-03T05:11:42;15.38;;;1.92;;
77522;SDS011;66637;-29.628;-49.938;2023-04-03T05:14:16;14.18;;;1.92;;
77522;SDS011;66637;-29.628;-49.938;2023-04-03T05:16:47;12.88;;;1.90;;
77522;SDS011;66637;-29.628;-49.938;2023-04-03T05:19:25;10.38;;;2.05;;
77522;SDS011;66637;-29.628;-49.938;2023-04-03T05:21:57;17.15;;;1.92;;
77522;SDS011;66637;-29.628;-49.938;2023-04-03T05:24:29;14.85;;;1.98;;
77522;SDS011;66637;-29.628;-49.938;2023-04-03T05:27:01;12.75;;;2.00;;
77522;SDS011;66637;-29.628;-49.938;2023-04-03T05:29:35;13.50;;;1.65;;
77522;SDS011;66637;-29.628;-49.938;2023-04-03T05:32:05;14.85;;;2.00;;
77522;SDS011;66637;-29.628;-49.938;2023-04-03T05:34:36;9.40;;;1.70;;
77522;SDS011;66637;-29.628;-49.938;2023-04-03T05:37:06;14.23;;;1.65;;
77522;SDS011;66637;-29.628;-49.938;2023-04-03T05:39:38;15.07;;;2.22;;
77522;SDS011;66637;-29.628;-49.938;2023-04-03T05:42:11;10.80;;;1.73;;
77522;SDS011;66637;-29.628;-49.938;2023-04-03T05:44:43;9.43;;;1.70;;
77522;SDS011;66637;-29.628;-49.938;2023-04-03T05:47:15;10.27;;;1.75;;
77522;SDS011;66637;-29.628;-49.938;2023-04-03T05:49:46;14.02;;;1.90;;
77522;SDS011;66637;-29.628;-49.938;2023-04-03T05:52:23;17.23;;;2.15;;
77522;SDS011;66637;-29.628;-49.938;2023-04-03T05:54:57;11.13;;;1.83;;
77522;SDS011;66637;-29.628;-49.938;2023-04-03T05:57:30;11.07;;;1.45;;
77522;SDS011;66637;-29.628;-49.938;2023-04-03T06:00:02;11.27;;;1.98;;
77522;SDS011;66637;-29.628;-49.938;2023-04-03T06:02:40;14.43;;;2.00;;
77522;SDS011;66637;-29.628;-49.938;2023-04-03T06:05:17;13.57;;;1.90;;
77522;SDS011;66637;-29.628;-49.938;2023-04-03T06:07:48;12.00;;;1.70;;
77522;SDS011;66637;-29.628;-49.938;2023-04-03T06:10:20;15.15;;;1.30;;
77522;SDS011;66637;-29.628;-49.938;2023-04-03T06:12:50;12.38;;;1.63;;
77522;SDS011;66637;-29.628;-49.938;2023-04-03T06:15:23;8.23;;;1.80;;
77522;SDS011;66637;-29.628;-49.938;2023-04-03T06:17:53;13.25;;;1.70;;
77522;SDS011;66637;-29.628;-49.938;2023-04-03T06:20:25;8.93;;;1.60;;
77522;SDS011;66637;-29.628;-49.938;2023-04-03T06:22:56;11.35;;;1.90;;
77522;SDS011;66637;-29.628;-49.938;2023-04-03T06:25:27;15.60;;;1.90;;
77522;SDS011;66637;-29.628;-49.938;2023-04-03T06:27:58;16.23;;;2.33;;
77522;SDS011;66637;-29.628;-49.938;2023-04-03T06:30:30;12.00;;;2.00;;
77522;SDS011;66637;-29.628;-49.938;2023-04-03T06:33:00;11.75;;;1.73;;
77522;SDS011;66637;-29.628;-49.938;2023-04-03T06:35:31;16.30;;;2.22;;
77522;SDS011;66637;-29.628;-49.938;2023-04-03T06:38:04;13.45;;;2.05;;
77522;SDS011;66637;-29.628;-49.938;2023-04-03T06:40:38;14.30;;;2.08;;
77522;SDS011;66637;-29.628;-49.938;2023-04-03T06:43:08;9.23;;;1.80;;
77522;SDS011;66637;-29.628;-49.938;2023-04-03T06:45:39;13.40;;;2.13;;
77522;SDS011;66637;-29.628;-49.938;2023-04-03T06:48:10;14.95;;;2.20;;
77522;SDS011;66637;-29.628;-49.938;2023-04-03T06:50:42;10.45;;;1.65;;
77522;SDS011;66637;-29.628;-49.938;2023-04-03T06:53:13;10.73;;;1.63;;
77522;SDS011;66637;-29.628;-49.938;2023-04-03T06:55:46;13.02;;;1.50;;
77522;SDS011;66637;-29.628;-49.938;2023-04-03T06:58:17;14.20;;;1.88;;
77522;SDS011;66637;-29.628;-49.938;2023-04-03T07:00:50;10.60;;;2.00;;
77522;SDS011;66637;-29.628;-49.938;2023-04-03T07:03:21;11.60;;;1.58;;
77522;SDS011;66637;-29.628;-49.938;2023-04-03T07:05:52;11.48;;;1.52;;
77522;SDS011;66637;-29.628;-49.938;2023-04-03T07:08:24;10.27;;;1.42;;
77522;SDS011;66637;-29.628;-49.938;2023-04-03T07:10:55;11.52;;;1.40;;
77522;SDS011;66637;-29.628;-49.938;2023-04-03T07:13:26;13.32;;;1.52;;
77522;SDS011;66637;-29.628;-49.938;2023-04-03T07:15:57;12.32;;;1.52;;
77522;SDS011;66637;-29.628;-49.938;2023-04-03T07:18:28;16.08;;;2.78;;
77522;SDS011;66637;-29.628;-49.938;2023-04-03T07:20:59;14.10;;;1.80;;
77522;SDS011;66637;-29.628;-49.938;2023-04-03T07:23:31;12.68;;;1.88;;
77522;SDS011;66637;-29.628;-49.938;2023-04-03T07:26:03;19.15;;;1.90;;
77522;SDS011;66637;-29.628;-49.938;2023-04-03T07:28:34;11.35;;;1.70;;
77522;SDS011;66637;-29.628;-49.938;2023-04-03T07:31:06;15.57;;;1.77;;
77522;SDS011;66637;-29.628;-49.938;2023-04-03T07:33:40;16.58;;;2.20;;
77522;SDS011;66637;-29.628;-49.938;2023-04-03T07:36:17;10.60;;;1.65;;
77522;SDS011;66637;-29.628;-49.938;2023-04-03T07:38:49;13.65;;;1.63;;
77522;SDS011;66637;-29.628;-49.938;2023-04-03T07:41:21;18.38;;;1.95;;
77522;SDS011;66637;-29.628;-49.938;2023-04-03T07:43:52;15.38;;;1.90;;
77522;SDS011;66637;-29.628;-49.938;2023-04-03T07:46:24;13.23;;;1.67;;
77522;SDS011;66637;-29.628;-49.938;2023-04-03T07:48:56;12.70;;;2.00;;
77522;SDS011;66637;-29.628;-49.938;2023-04-03T07:51:26;10.80;;;1.50;;
77522;SDS011;66637;-29.628;-49.938;2023-04-03T07:53:58;10.20;;;1.70;;
77522;SDS011;66637;-29.628;-49.938;2023-04-03T07:56:30;14.38;;;1.58;;
77522;SDS011;66637;-29.628;-49.938;2023-04-03T07:59:01;13.32;;;1.65;;
77522;SDS011;66637;-29.628;-49.938;2023-04-03T08:01:33;12.68;;;1.63;;
77522;SDS011;66637;-29.628;-49.938;2023-04-03T08:04:03;10.68;;;1.52;;
77522;SDS011;66637;-29.628;-49.938;2023-04-03T08:06:35;11.80;;;1.73;;
77522;SDS011;66637;-29.628;-49.938;2023-04-03T08:09:14;12.27;;;1.65;;
77522;SDS011;66637;-29.628;-49.938;2023-04-03T08:11:45;12.48;;;1.67;;
77522;SDS011;66637;-29.628;-49.938;2023-04-03T08:14:16;14.00;;;1.60;;
77522;SDS011;66637;-29.628;-49.938;2023-04-03T08:16:48;10.05;;;1.42;;
77522;SDS011;66637;-29.628;-49.938;2023-04-03T08:19:18;12.32;;;1.60;;
77522;SDS011;66637;-29.628;-49.938;2023-04-03T08:21:54;14.95;;;1.67;;
77522;SDS011;66637;-29.628;-49.938;2023-04-03T08:24:26;12.82;;;1.95;;
77522;SDS011;66637;-29.628;-49.938;2023-04-03T08:26:57;10.40;;;1.30;;
77522;SDS011;66637;-29.628;-49.938;2023-04-03T08:29:27;13.05;;;2.13;;
77522;SDS011;66637;-29.628;-49.938;2023-04-03T08:32:01;13.65;;;1.70;;
77522;SDS011;66637;-29.628;-49.938;2023-04-03T08:34:31;16.35;;;1.77;;
77522;SDS011;66637;-29.628;-49.938;2023-04-03T08:37:05;15.48;;;2.13;;
77522;SDS011;66637;-29.628;-49.938;2023-04-03T08:39:36;10.05;;;1.40;;
77522;SDS011;66637;-29.628;-49.938;2023-04-03T08:42:12;13.10;;;1.77;;
77522;SDS011;66637;-29.628;-49.938;2023-04-03T08:51:10;10.88;;;2.70;;
77522;SDS011;66637;-29.628;-49.938;2023-04-03T08:54:13;11.85;;;1.75;;
77522;SDS011;66637;-29.628;-49.938;2023-04-03T08:56:49;17.52;;;1.88;;
77522;SDS011;66637;-29.628;-49.938;2023-04-03T08:59:26;10.80;;;1.77;;
77522;SDS011;66637;-29.628;-49.938;2023-04-03T09:02:02;12.43;;;1.90;;
77522;SDS011;66637;-29.628;-49.938;2023-04-03T09:04:52;9.70;;;1.63;;
77522;SDS011;66637;-29.628;-49.938;2023-04-03T09:07:38;13.77;;;1.85;;
77522;SDS011;66637;-29.628;-49.938;2023-04-03T09:10:18;12.40;;;1.88;;
77522;SDS011;66637;-29.628;-49.938;2023-04-03T09:12:59;15.75;;;2.08;;
77522;SDS011;66637;-29.628;-49.938;2023-04-03T09:15:38;12.85;;;1.90;;
77522;SDS011;66637;-29.628;-49.938;2023-04-03T09:18:13;12.13;;;2.03;;
77522;SDS011;66637;-29.628;-49.938;2023-04-03T09:20:55;13.85;;;1.75;;
77522;SDS011;66637;-29.628;-49.938;2023-04-03T09:23:41;12.18;;;1.83;;
77522;SDS011;66637;-29.628;-49.938;2023-04-03T09:26:20;10.68;;;1.90;;
77522;SDS011;66637;-29.628;-49.938;2023-04-03T09:29:01;11.93;;;2.03;;
77522;SDS011;66637;-29.628;-49.938;2023-04-03T09:31:37;12.77;;;2.17;;
77522;SDS011;66637;-29.628;-49.938;2023-04-03T09:34:20;13.52;;;1.70;;
77522;SDS011;66637;-29.628;-49.938;2023-04-03T09:37:04;11.85;;;1.90;;
77522;SDS011;66637;-29.628;-49.938;2023-04-03T09:39:48;14.68;;;1.95;;
77522;SDS011;66637;-29.628;-49.938;2023-04-03T09:42:24;15.07;;;1.77;;
77522;SDS011;66637;-29.628;-49.938;2023-04-03T09:44:59;16.33;;;2.05;;
77522;SDS011;66637;-29.628;-49.938;2023-04-03T09:47:35;14.18;;;1.95;;
77522;SDS011;66637;-29.628;-49.938;2023-04-03T09:52:45;10.65;;;1.65;;
77522;SDS011;66637;-29.628;-49.938;2023-04-03T09:55:25;13.32;;;1.80;;
77522;SDS011;66637;-29.628;-49.938;2023-04-03T09:58:03;12.55;;;2.13;;
77522;SDS011;66637;-29.628;-49.938;2023-04-03T10:00:38;8.35;;;1.48;;
77522;SDS011;66637;-29.628;-49.938;2023-04-03T10:06:01;12.93;;;1.98;;
77522;SDS011;66637;-29.628;-49.938;2023-04-03T10:08:34;11.10;;;1.77;;
77522;SDS011;66637;-29.628;-49.938;2023-04-03T10:11:15;7.80;;;1.42;;
77522;SDS011;66637;-29.628;-49.938;2023-04-03T10:13:52;12.20;;;1.92;;
77522;SDS011;66637;-29.628;-49.938;2023-04-03T10:16:32;11.73;;;1.98;;
77522;SDS011;66637;-29.628;-49.938;2023-04-03T10:31:29;12.23;;;1.80;;
77522;SDS011;66637;-29.628;-49.938;2023-04-03T10:34:17;14.02;;;1.85;;
77522;SDS011;66637;-29.628;-49.938;2023-04-03T10:42:18;10.43;;;1.60;;
77522;SDS011;66637;-29.628;-49.938;2023-04-03T10:48:07;9.50;;;1.88;;
77522;SDS011;66637;-29.628;-49.938;2023-04-03T10:53:54;15.63;;;1.80;;
77522;SDS011;66637;-29.628;-49.938;2023-04-03T10:56:39;9.50;;;1.83;;
77522;SDS011;66637;-29.628;-49.938;2023-04-03T10:59:21;11.30;;;1.60;;
77522;SDS011;66637;-29.628;-49.938;2023-04-03T11:05:16;15.43;;;2.03;;
77522;SDS011;66637;-29.628;-49.938;2023-04-03T11:08:16;9.27;;;1.90;;
77522;SDS011;66637;-29.628;-49.938;2023-04-03T11:11:01;12.85;;;2.03;;
77522;SDS011;66637;-29.628;-49.938;2023-04-03T11:16:35;12.40;;;2.30;;
77522;SDS011;66637;-29.628;-49.938;2023-04-03T11:19:22;11.75;;;2.28;;
77522;SDS011;66637;-29.628;-49.938;2023-04-03T11:22:08;9.60;;;1.80;;
77522;SDS011;66637;-29.628;-49.938;2023-04-03T11:24:43;10.18;;;2.72;;
77522;SDS011;66637;-29.628;-49.938;2023-04-03T11:30:01;8.77;;;2.22;;
77522;SDS011;66637;-29.628;-49.938;2023-04-03T11:32:48;8.95;;;2.25;;
77522;SDS011;66637;-29.628;-49.938;2023-04-03T11:35:26;7.47;;;2.83;;
77522;SDS011;66637;-29.628;-49.938;2023-04-03T11:37:59;7.15;;;2.38;;
77522;SDS011;66637;-29.628;-49.938;2023-04-03T11:40:35;7.55;;;2.40;;
77522;SDS011;66637;-29.628;-49.938;2023-04-03T11:43:16;9.00;;;2.47;;
77522;SDS011;66637;-29.628;-49.938;2023-04-03T11:45:56;9.13;;;2.03;;
77522;SDS011;66637;-29.628;-49.938;2023-04-03T12:06:47;9.20;;;2.40;;
77522;SDS011;66637;-29.628;-49.938;2023-04-03T12:08:49;6.13;;;1.90;;
77522;SDS011;66637;-29.628;-49.938;2023-04-03T12:11:25;8.25;;;2.30;;
77522;SDS011;66637;-29.628;-49.938;2023-04-03T12:24:36;92.93;;;13.68;;
77522;SDS011;66637;-29.628;-49.938;2023-04-03T12:30:07;106.22;;;17.05;;
77522;SDS011;66637;-29.628;-49.938;2023-04-03T12:33:20;97.88;;;15.13;;
77522;SDS011;66637;-29.628;-49.938;2023-04-03T12:41:37;95.30;;;15.45;;
77522;SDS011;66637;-29.628;-49.938;2023-04-03T12:47:43;138.48;;;21.55;;
77522;SDS011;66637;-29.628;-49.938;2023-04-03T12:55:31;113.95;;;17.65;;
77522;SDS011;66637;-29.628;-49.938;2023-04-03T13:01:03;96.40;;;16.38;;
77522;SDS011;66637;-29.628;-49.938;2023-04-03T13:03:45;91.60;;;14.82;;
77522;SDS011;66637;-29.628;-49.938;2023-04-03T13:06:21;97.55;;;15.88;;
77522;SDS011;66637;-29.628;-49.938;2023-04-03T13:08:58;103.28;;;18.05;;
77522;SDS011;66637;-29.628;-49.938;2023-04-03T13:11:35;100.78;;;14.77;;
77522;SDS011;66637;-29.628;-49.938;2023-04-03T13:14:19;122.60;;;19.38;;
77522;SDS011;66637;-29.628;-49.938;2023-04-03T13:16:56;101.15;;;14.43;;
77522;SDS011;66637;-29.628;-49.938;2023-04-03T13:19:29;127.97;;;17.95;;
77522;SDS011;66637;-29.628;-49.938;2023-04-03T13:24:35;96.10;;;16.00;;
77522;SDS011;66637;-29.628;-49.938;2023-04-03T13:27:11;110.47;;;19.02;;
77522;SDS011;66637;-29.628;-49.938;2023-04-03T13:29:49;89.15;;;12.02;;
77522;SDS011;66637;-29.628;-49.938;2023-04-03T13:32:23;127.82;;;20.08;;
77522;SDS011;66637;-29.628;-49.938;2023-04-03T13:34:57;116.90;;;19.05;;
77522;SDS011;66637;-29.628;-49.938;2023-04-03T13:37:59;89.75;;;15.60;;
77522;SDS011;66637;-29.628;-49.938;2023-04-03T13:43:19;78.07;;;13.10;;
77522;SDS011;66637;-29.628;-49.938;2023-04-03T13:46:01;60.72;;;8.80;;
77522;SDS011;66637;-29.628;-49.938;2023-04-03T13:48:43;90.63;;;14.68;;
77522;SDS011;66637;-29.628;-49.938;2023-04-03T13:54:00;79.75;;;14.10;;
77522;SDS011;66637;-29.628;-49.938;2023-04-03T13:56:43;80.50;;;10.48;;
77522;SDS011;66637;-29.628;-49.938;2023-04-03T14:01:47;109.47;;;16.50;;
77522;SDS011;66637;-29.628;-49.938;2023-04-03T14:06:52;77.05;;;13.63;;
77522;SDS011;66637;-29.628;-49.938;2023-04-03T14:09:24;81.05;;;12.93;;
77522;SDS011;66637;-29.628;-49.938;2023-04-03T14:11:58;60.22;;;10.77;;
77522;SDS011;66637;-29.628;-49.938;2023-04-03T14:14:35;86.05;;;15.25;;
77522;SDS011;66637;-29.628;-49.938;2023-04-03T14:17:14;83.72;;;11.70;;
77522;SDS011;66637;-29.628;-49.938;2023-04-03T14:19:53;93.45;;;13.38;;
77522;SDS011;66637;-29.628;-49.938;2023-04-03T14:22:30;98.43;;;18.38;;
77522;SDS011;66637;-29.628;-49.938;2023-04-03T14:25:04;82.55;;;11.68;;
77522;SDS011;66637;-29.628;-49.938;2023-04-03T14:27:40;113.72;;;16.55;;
77522;SDS011;66637;-29.628;-49.938;2023-04-03T14:30:20;82.88;;;13.10;;
77522;SDS011;66637;-29.628;-49.938;2023-04-03T14:32:54;81.78;;;14.10;;
77522;SDS011;66637;-29.628;-49.938;2023-04-03T14:35:25;98.47;;;16.75;;
77522;SDS011;66637;-29.628;-49.938;2023-04-03T14:37:59;71.47;;;11.10;;
77522;SDS011;66637;-29.628;-49.938;2023-04-03T14:40:30;93.05;;;15.38;;
77522;SDS011;66637;-29.628;-49.938;2023-04-03T14:43:02;85.65;;;14.98;;
77522;SDS011;66637;-29.628;-49.938;2023-04-03T14:45:32;78.53;;;12.98;;
77522;SDS011;66637;-29.628;-49.938;2023-04-03T14:48:04;78.97;;;11.63;;
77522;SDS011;66637;-29.628;-49.938;2023-04-03T14:50:46;94.38;;;15.43;;
77522;SDS011;66637;-29.628;-49.938;2023-04-03T14:53:34;68.35;;;9.70;;
77522;SDS011;66637;-29.628;-49.938;2023-04-03T14:56:16;95.15;;;13.13;;
77522;SDS011;66637;-29.628;-49.938;2023-04-03T15:01:31;77.30;;;12.20;;
77522;SDS011;66637;-29.628;-49.938;2023-04-03T15:04:18;75.88;;;11.18;;
77522;SDS011;66637;-29.628;-49.938;2023-04-03T15:06:50;77.13;;;12.07;;
77522;SDS011;66637;-29.628;-49.938;2023-04-03T15:09:24;106.70;;;15.25;;
77522;SDS011;66637;-29.628;-49.938;2023-04-03T15:11:57;88.55;;;12.43;;
77522;SDS011;66637;-29.628;-49.938;2023-04-03T15:14:28;65.53;;;9.93;;
77522;SDS011;66637;-29.628;-49.938;2023-04-03T15:17:21;57.63;;;9.45;;
77522;SDS011;66637;-29.628;-49.938;2023-04-03T15:19:53;75.80;;;12.30;;
77522;SDS011;66637;-29.628;-49.938;2023-04-03T15:22:24;76.32;;;12.30;;
77522;SDS011;66637;-29.628;-49.938;2023-04-03T15:24:54;57.85;;;9.05;;
77522;SDS011;66637;-29.628;-49.938;2023-04-03T15:27:25;72.85;;;12.30;;
77522;SDS011;66637;-29.628;-49.938;2023-04-03T15:29:58;51.10;;;9.55;;
77522;SDS011;66637;-29.628;-49.938;2023-04-03T15:32:28;64.50;;;11.48;;
77522;SDS011;66637;-29.628;-49.938;2023-04-03T15:34:59;95.97;;;17.25;;
77522;SDS011;66637;-29.628;-49.938;2023-04-03T15:37:30;116.95;;;19.60;;
77522;SDS011;66637;-29.628;-49.938;2023-04-03T15:40:02;81.60;;;11.75;;
77522;SDS011;66637;-29.628;-49.938;2023-04-03T15:42:34;85.50;;;11.75;;
77522;SDS011;66637;-29.628;-49.938;2023-04-03T15:45:04;57.40;;;9.05;;
77522;SDS011;66637;-29.628;-49.938;2023-04-03T15:47:36;72.50;;;11.60;;
77522;SDS011;66637;-29.628;-49.938;2023-04-03T15:50:08;82.20;;;12.05;;
77522;SDS011;66637;-29.628;-49.938;2023-04-03T15:52:39;53.63;;;8.75;;
77522;SDS011;66637;-29.628;-49.938;2023-04-03T15:55:11;62.75;;;10.32;;
77522;SDS011;66637;-29.628;-49.938;2023-04-03T15:57:42;56.38;;;10.32;;
77522;SDS011;66637;-29.628;-49.938;2023-04-03T16:00:12;60.55;;;9.05;;
77522;SDS011;66637;-29.628;-49.938;2023-04-03T16:02:44;63.42;;;9.32;;
77522;SDS011;66637;-29.628;-49.938;2023-04-03T16:05:17;61.33;;;11.40;;
77522;SDS011;66637;-29.628;-49.938;2023-04-03T16:07:49;74.78;;;11.63;;
77522;SDS011;66637;-29.628;-49.938;2023-04-03T16:10:20;48.15;;;9.20;;
77522;SDS011;66637;-29.628;-49.938;2023-04-03T16:12:55;62.67;;;9.45;;
77522;SDS011;66637;-29.628;-49.938;2023-04-03T16:15:26;76.18;;;12.07;;
77522;SDS011;66637;-29.628;-49.938;2023-04-03T16:18:00;56.70;;;9.85;;
77522;SDS011;66637;-29.628;-49.938;2023-04-03T16:20:31;71.05;;;11.48;;
77522;SDS011;66637;-29.628;-49.938;2023-04-03T16:23:03;85.20;;;14.57;;
77522;SDS011;66637;-29.628;-49.938;2023-04-03T16:25:33;69.43;;;10.93;;
77522;SDS011;66637;-29.628;-49.938;2023-04-03T16:28:05;55.63;;;9.57;;
77522;SDS011;66637;-29.628;-49.938;2023-04-03T16:30:37;80.35;;;13.32;;